Time;durP1;ratioP1;P1;durP2;ratioP2;P2;SDS_P1;SDS_P2;PMS_P1;PMS_P2;Temp;Humidity;BMP_temperature;BMP_pressure;BME280_temperature;BME280_humidity;BME280_pressure;Samples;Min_cycle;Max_cycle;Signal;HPM_P1;HPM_P2
2023/11/06 00:02:08;;;;;;;2.23;1.33;;;11.70;90.30;;;;;;5007100;28;20463;-46
2023/11/06 00:04:36;;;;;;;3.17;1.23;;;11.70;90.30;;;;;;5025008;28;20532;-46
2023/11/06 00:07:06;;;;;;;1.40;0.90;;;11.70;90.20;;;;;;5027027;28;20853;-46
2023/11/06 00:09:34;;;;;;;2.53;0.70;;;11.70;90.30;;;;;;5023452;28;20450;-46
2023/11/06 00:12:02;;;;;;;2.33;1.57;;;11.70;90.20;;;;;;5011270;28;20471;-47
2023/11/06 00:14:31;;;;;;;1.90;0.67;;;11.70;90.30;;;;;;5031860;28;20783;-46
2023/11/06 00:17:00;;;;;;;1.83;0.80;;;11.70;90.20;;;;;;5027300;28;20476;-46
2023/11/06 00:19:28;;;;;;;2.80;0.87;;;11.70;90.20;;;;;;5030201;28;20667;-46
2023/11/06 00:21:57;;;;;;;4.50;1.07;;;11.70;90.20;;;;;;5028467;28;20476;-46
2023/11/06 00:24:26;;;;;;;2.50;1.20;;;11.70;90.20;;;;;;5027448;28;20499;-46
2023/11/06 00:26:54;;;;;;;4.10;1.00;;;11.70;90.30;;;;;;5029721;28;20504;-45
2023/11/06 00:29:22;;;;;;;4.13;1.07;;;11.70;90.30;;;;;;5026073;28;20440;-46
2023/11/06 00:31:50;;;;;;;2.77;1.10;;;11.70;90.30;;;;;;5024646;28;20507;-46
2023/11/06 00:34:20;;;;;;;3.77;1.37;;;11.70;90.20;;;;;;5009429;28;20451;-46
2023/11/06 00:36:49;;;;;;;3.93;1.03;;;11.70;90.20;;;;;;5029468;28;20565;-46
2023/11/06 00:39:17;;;;;;;1.87;0.97;;;11.70;90.20;;;;;;5025630;28;20475;-46
2023/11/06 00:41:50;;;;;;;2.33;0.80;;;11.70;90.20;;;;;;5027317;28;20799;-46
2023/11/06 00:44:23;;;;;;;1.50;0.80;;;11.70;90.20;;;;;;5029276;28;20440;-46
2023/11/06 00:46:52;;;;;;;2.90;0.90;;;11.70;90.20;;;;;;5028853;28;20774;-46
2023/11/06 00:49:22;;;;;;;3.30;0.80;;;11.70;90.30;;;;;;5025647;28;20546;-46
2023/11/06 00:51:50;;;;;;;3.00;0.80;;;11.70;90.20;;;;;;5011260;28;20472;-46
2023/11/06 00:54:18;;;;;;;2.13;0.67;;;11.70;90.20;;;;;;5027093;28;20454;-46
2023/11/06 00:56:46;;;;;;;3.50;1.73;;;11.70;90.20;;;;;;5008988;28;20480;-45
2023/11/06 00:59:16;;;;;;;1.90;0.87;;;11.70;90.20;;;;;;5028024;28;20867;-45
2023/11/06 01:01:45;;;;;;;2.30;1.00;;;11.70;90.20;;;;;;5028588;28;21060;-46
2023/11/06 01:04:13;;;;;;;1.70;0.70;;;11.70;90.20;;;;;;5027081;28;20938;-46
2023/11/06 01:06:43;;;;;;;1.63;0.90;;;11.70;90.20;;;;;;5011483;28;21005;-46
2023/11/06 01:09:13;;;;;;;2.07;1.07;;;11.70;90.30;;;;;;5019579;28;20449;-46
2023/11/06 01:11:41;;;;;;;2.90;0.83;;;11.70;90.20;;;;;;5030077;28;20511;-46
2023/11/06 01:14:10;;;;;;;1.60;0.80;;;11.70;90.30;;;;;;5026254;28;20832;-47
2023/11/06 01:16:38;;;;;;;1.80;0.80;;;11.70;90.30;;;;;;5025724;28;20486;-46
2023/11/06 01:19:08;;;;;;;1.90;0.80;;;11.70;90.20;;;;;;5026610;28;20458;-46
2023/11/06 01:21:36;;;;;;;2.40;0.80;;;11.70;90.20;;;;;;5029127;28;20484;-46
2023/11/06 01:24:08;;;;;;;1.60;0.83;;;11.70;90.20;;;;;;5026603;28;20443;-45
2023/11/06 01:26:36;;;;;;;1.53;0.70;;;11.70;90.20;;;;;;5028882;28;20480;-46
2023/11/06 01:29:05;;;;;;;3.97;0.80;;;11.70;90.20;;;;;;5029742;28;20439;-47
2023/11/06 01:31:34;;;;;;;1.40;0.73;;;11.70;90.20;;;;;;5020383;28;20472;-46
2023/11/06 01:34:02;;;;;;;2.70;1.20;;;11.70;90.20;;;;;;5026662;28;20497;-46
2023/11/06 01:36:31;;;;;;;1.30;0.70;;;11.70;90.20;;;;;;5027504;28;20999;-46
2023/11/06 01:38:59;;;;;;;3.63;1.17;;;11.70;90.20;;;;;;5024189;28;20445;-46
2023/11/06 01:41:29;;;;;;;2.07;0.83;;;11.70;90.20;;;;;;5028032;28;20467;-46
2023/11/06 01:43:57;;;;;;;2.83;0.77;;;11.70;90.20;;;;;;5026362;28;20433;-46
2023/11/06 01:46:25;;;;;;;3.57;0.87;;;11.70;90.20;;;;;;5027347;28;20539;-46
2023/11/06 01:48:54;;;;;;;2.53;0.80;;;11.70;90.30;;;;;;5027315;28;21025;-46
2023/11/06 01:51:22;;;;;;;1.10;0.70;;;11.70;90.30;;;;;;5010894;28;20743;-46
2023/11/06 01:53:50;;;;;;;2.40;0.80;;;11.70;90.40;;;;;;5004443;28;20841;-46
2023/11/06 01:56:19;;;;;;;3.20;1.30;;;11.70;90.40;;;;;;5011039;28;20463;-46
2023/11/06 01:58:49;;;;;;;2.40;0.70;;;11.70;90.40;;;;;;5009591;28;20422;-46
2023/11/06 02:01:19;;;;;;;2.20;0.80;;;11.70;90.50;;;;;;5008939;28;20460;-45
2023/11/06 02:03:47;;;;;;;1.83;0.80;;;11.60;90.50;;;;;;5006243;28;20437;-46
2023/11/06 02:06:16;;;;;;;3.00;1.27;;;11.60;90.50;;;;;;4988180;28;20465;-46
2023/11/06 02:08:46;;;;;;;3.00;1.80;;;11.60;90.50;;;;;;4989466;28;20502;-46
2023/11/06 02:11:15;;;;;;;2.80;0.77;;;11.60;90.60;;;;;;5007984;28;20458;-46
2023/11/06 02:13:44;;;;;;;2.70;0.60;;;11.60;90.50;;;;;;5008468;28;21003;-46
2023/11/06 02:16:13;;;;;;;1.83;0.90;;;11.60;90.40;;;;;;5008718;28;20478;-46
2023/11/06 02:18:44;;;;;;;1.60;0.80;;;11.60;90.40;;;;;;5007733;28;20554;-46
2023/11/06 02:21:13;;;;;;;2.27;0.97;;;11.70;90.50;;;;;;4990290;28;20465;-46
2023/11/06 02:23:43;;;;;;;2.37;0.87;;;11.60;90.90;;;;;;4989553;28;20445;-46
2023/11/06 02:26:12;;;;;;;2.50;0.80;;;11.60;90.40;;;;;;4990925;28;20472;-46
2023/11/06 02:28:40;;;;;;;3.50;1.37;;;11.60;90.40;;;;;;5007159;28;21036;-46
2023/11/06 02:31:08;;;;;;;1.27;0.73;;;11.60;90.50;;;;;;5005391;28;20499;-46
2023/11/06 02:33:39;;;;;;;1.73;0.83;;;11.60;90.50;;;;;;5006187;28;20477;-46
2023/11/06 02:36:08;;;;;;;2.90;0.80;;;11.60;90.50;;;;;;5007397;28;20474;-46
2023/11/06 02:38:36;;;;;;;3.13;0.90;;;11.60;90.40;;;;;;5005308;28;20495;-45
2023/11/06 02:41:06;;;;;;;1.83;0.77;;;11.60;90.50;;;;;;5006716;28;20490;-46
2023/11/06 02:43:34;;;;;;;1.87;0.90;;;11.60;90.40;;;;;;5007346;28;20525;-46
2023/11/06 02:46:03;;;;;;;2.70;0.83;;;11.60;90.50;;;;;;5006934;28;20491;-46
2023/11/06 02:48:31;;;;;;;3.10;0.97;;;11.60;90.50;;;;;;5007855;28;20532;-45
2023/11/06 02:51:00;;;;;;;2.37;0.90;;;11.60;90.50;;;;;;5019553;28;20471;-46
2023/11/06 02:53:30;;;;;;;1.90;1.07;;;11.60;90.40;;;;;;5025928;28;20926;-46
2023/11/06 02:55:58;;;;;;;3.00;0.63;;;11.60;90.40;;;;;;5027180;28;20493;-46
2023/11/06 02:58:27;;;;;;;1.73;0.77;;;11.60;90.40;;;;;;5027573;28;20448;-46
2023/11/06 03:00:56;;;;;;;3.40;0.90;;;11.60;90.40;;;;;;5024337;28;20465;-46
2023/11/06 03:03:24;;;;;;;4.30;0.80;;;11.60;90.40;;;;;;5007092;28;20579;-46
2023/11/06 03:05:52;;;;;;;2.17;0.63;;;11.60;90.40;;;;;;5003587;28;21016;-46
2023/11/06 03:08:20;;;;;;;2.50;0.60;;;11.60;90.40;;;;;;5025739;28;20446;-46
2023/11/06 03:10:49;;;;;;;2.33;0.80;;;11.60;90.40;;;;;;5026665;28;21010;-46
2023/11/06 03:13:17;;;;;;;2.43;0.67;;;11.60;90.40;;;;;;5028463;28;20849;-45
2023/11/06 03:15:47;;;;;;;6.77;1.00;;;11.60;90.30;;;;;;5008831;28;20500;-45
2023/11/06 03:18:15;;;;;;;2.50;0.70;;;11.60;90.30;;;;;;5024524;28;21001;-46
2023/11/06 03:20:44;;;;;;;2.90;0.70;;;11.60;90.30;;;;;;5026162;28;20473;-45
2023/11/06 03:23:12;;;;;;;2.13;0.77;;;11.60;90.30;;;;;;5014669;28;21032;-46
2023/11/06 03:25:40;;;;;;;1.73;0.77;;;11.60;90.30;;;;;;5031697;28;20538;-45
2023/11/06 03:28:08;;;;;;;1.83;0.60;;;11.60;90.30;;;;;;5031239;28;20448;-46
2023/11/06 03:30:36;;;;;;;2.20;1.20;;;11.60;90.30;;;;;;5031959;28;20458;-46
2023/11/06 03:33:06;;;;;;;2.10;0.70;;;11.60;90.20;;;;;;5032535;28;20458;-46
2023/11/06 03:35:35;;;;;;;1.63;0.70;;;11.60;90.30;;;;;;5032753;28;21026;-45
2023/11/06 03:38:05;;;;;;;1.60;0.77;;;11.60;90.30;;;;;;5032414;28;20443;-46
2023/11/06 03:40:33;;;;;;;2.33;0.93;;;11.60;90.30;;;;;;5030924;28;20552;-46
2023/11/06 03:43:02;;;;;;;1.93;0.60;;;11.60;90.30;;;;;;5033662;28;20452;-46
2023/11/06 03:45:30;;;;;;;1.77;0.70;;;11.60;90.30;;;;;;5029811;28;20463;-46
2023/11/06 03:47:58;;;;;;;1.40;0.63;;;11.60;90.20;;;;;;5023505;28;20452;-46
2023/11/06 03:50:27;;;;;;;2.80;0.90;;;11.60;90.30;;;;;;5032827;28;21178;-46
2023/11/06 03:52:56;;;;;;;2.43;0.97;;;11.60;90.20;;;;;;5034185;28;20494;-45
2023/11/06 03:55:24;;;;;;;1.87;1.17;;;11.60;90.20;;;;;;5026894;28;20470;-46
2023/11/06 03:57:52;;;;;;;2.83;0.80;;;11.60;90.20;;;;;;5033356;28;20963;-45
2023/11/06 04:00:21;;;;;;;5.37;0.90;;;11.60;90.20;;;;;;5031958;28;20478;-45
2023/11/06 04:02:49;;;;;;;2.13;0.70;;;11.60;90.20;;;;;;5030570;28;20450;-46
2023/11/06 04:05:18;;;;;;;2.70;0.63;;;11.60;90.20;;;;;;5032950;28;20491;-46
2023/11/06 04:07:47;;;;;;;5.00;1.20;;;11.60;90.20;;;;;;5032959;28;20478;-45
2023/11/06 04:10:15;;;;;;;2.70;0.70;;;11.60;90.20;;;;;;5029454;28;20450;-46
2023/11/06 04:12:44;;;;;;;3.47;0.90;;;11.60;90.20;;;;;;5032891;28;20438;-46
2023/11/06 04:15:12;;;;;;;3.43;0.70;;;11.60;90.20;;;;;;5030043;28;20497;-46
2023/11/06 04:17:41;;;;;;;3.37;1.17;;;11.60;90.20;;;;;;5031780;28;20465;-46
2023/11/06 04:20:13;;;;;;;2.67;0.97;;;11.50;90.20;;;;;;5031329;28;20518;-45
2023/11/06 04:22:42;;;;;;;2.53;1.17;;;11.60;90.20;;;;;;5030409;28;20901;-46
2023/11/06 04:25:11;;;;;;;4.37;1.17;;;11.60;90.20;;;;;;5032535;28;20449;-46
2023/11/06 04:27:39;;;;;;;3.50;1.17;;;11.60;90.20;;;;;;5027820;28;20456;-47
2023/11/06 04:30:08;;;;;;;2.27;0.80;;;11.50;90.10;;;;;;5029826;28;21004;-46
2023/11/06 04:32:37;;;;;;;4.80;1.23;;;11.50;90.20;;;;;;5025431;28;20482;-45
2023/11/06 04:35:06;;;;;;;4.50;0.90;;;11.50;90.20;;;;;;5028472;28;20506;-46
2023/11/06 04:37:36;;;;;;;3.10;1.03;;;11.60;90.20;;;;;;5028608;28;20469;-46
2023/11/06 04:40:10;;;;;;;5.43;1.10;;;11.50;90.10;;;;;;5025312;28;20471;-46
2023/11/06 04:42:41;;;;;;;7.90;1.50;;;11.50;90.10;;;;;;5026589;28;20460;-46
2023/11/06 04:45:10;;;;;;;1.77;0.70;;;11.60;90.20;;;;;;5030262;28;20523;-46
2023/11/06 04:47:38;;;;;;;4.93;1.10;;;11.60;90.20;;;;;;5020501;28;20859;-46
2023/11/06 04:50:07;;;;;;;2.77;1.07;;;11.50;90.10;;;;;;5029332;28;20462;-47
2023/11/06 04:52:35;;;;;;;2.13;1.10;;;11.60;90.10;;;;;;5025982;28;20553;-46
2023/11/06 04:55:04;;;;;;;4.90;1.50;;;11.50;90.10;;;;;;5025186;28;20974;-46
2023/11/06 04:57:32;;;;;;;2.57;1.03;;;11.60;90.10;;;;;;5028921;28;20469;-46
2023/11/06 05:00:02;;;;;;;4.20;1.50;;;11.60;90.10;;;;;;5029413;28;20446;-46
2023/11/06 05:02:30;;;;;;;2.27;0.87;;;11.50;90.10;;;;;;5027864;28;20481;-46
2023/11/06 05:04:59;;;;;;;4.63;1.27;;;11.60;90.10;;;;;;5029076;28;20437;-46
2023/11/06 05:07:27;;;;;;;5.43;1.17;;;11.60;90.10;;;;;;5028738;28;21001;-46
2023/11/06 05:09:56;;;;;;;3.10;1.00;;;11.50;90.10;;;;;;5006635;28;20459;-46
2023/11/06 05:12:24;;;;;;;2.80;1.23;;;11.60;90.10;;;;;;5011650;28;20475;-46
2023/11/06 05:14:55;;;;;;;2.77;1.07;;;11.50;90.00;;;;;;5025732;28;20567;-46
2023/11/06 05:17:25;;;;;;;4.57;1.53;;;11.50;90.00;;;;;;5024614;28;20469;-47
2023/11/06 05:19:56;;;;;;;3.87;1.10;;;11.50;90.00;;;;;;5028053;28;20480;-45
2023/11/06 05:22:24;;;;;;;1.87;0.97;;;11.50;90.50;;;;;;5024182;28;20566;-45
2023/11/06 05:24:52;;;;;;;11.03;1.73;;;11.50;90.00;;;;;;5020401;28;20444;-46
2023/11/06 05:27:20;;;;;;;1.57;0.93;;;11.50;90.00;;;;;;5023506;28;20463;-46
2023/11/06 05:29:49;;;;;;;2.17;1.07;;;11.50;90.00;;;;;;5003273;28;20451;-45
2023/11/06 05:32:17;;;;;;;2.80;0.90;;;11.50;90.00;;;;;;5027541;28;20528;-45
2023/11/06 05:34:47;;;;;;;3.73;1.00;;;11.50;90.00;;;;;;5025610;28;20511;-45
2023/11/06 05:37:15;;;;;;;9.73;1.63;;;11.50;89.90;;;;;;5027525;28;20509;-47
2023/11/06 05:39:48;;;;;;;4.37;1.53;;;11.50;89.90;;;;;;5021819;28;20444;-46
2023/11/06 05:42:17;;;;;;;2.03;0.83;;;11.50;89.90;;;;;;5028103;28;20466;-46
2023/11/06 05:44:46;;;;;;;4.87;1.70;;;11.50;89.90;;;;;;5025663;28;20923;-45
2023/11/06 05:47:14;;;;;;;3.17;1.20;;;11.50;89.80;;;;;;5020841;28;21028;-46
2023/11/06 05:49:42;;;;;;;3.97;1.30;;;11.50;89.70;;;;;;5025744;28;20934;-46
2023/11/06 05:52:13;;;;;;;2.33;0.90;;;11.50;89.70;;;;;;5028727;28;20988;-46
2023/11/06 05:54:45;;;;;;;5.10;1.20;;;11.50;89.60;;;;;;5023480;28;20476;-46
2023/11/06 05:57:13;;;;;;;1.73;1.00;;;11.50;89.50;;;;;;5024793;28;20476;-46
2023/11/06 05:59:41;;;;;;;2.30;0.80;;;11.50;89.50;;;;;;5027849;28;20447;-45
2023/11/06 06:02:09;;;;;;;2.47;0.70;;;11.50;89.40;;;;;;5024651;28;20481;-46
2023/11/06 06:04:41;;;;;;;2.97;1.17;;;11.50;89.60;;;;;;5027759;28;20531;-46
2023/11/06 06:07:09;;;;;;;4.30;0.77;;;11.50;89.40;;;;;;5027564;28;20464;-45
2023/11/06 06:09:41;;;;;;;5.00;1.10;;;11.50;89.40;;;;;;5024176;28;20449;-46
2023/11/06 06:12:14;;;;;;;3.00;1.13;;;11.50;89.50;;;;;;5027437;28;20570;-46
2023/11/06 06:14:42;;;;;;;6.27;1.33;;;11.50;89.40;;;;;;5029076;28;20459;-45
2023/11/06 06:17:10;;;;;;;4.90;1.23;;;11.50;89.30;;;;;;5027642;28;20838;-46
2023/11/06 06:19:38;;;;;;;3.73;1.23;;;11.50;89.10;;;;;;5026639;28;21522;-46
2023/11/06 06:22:06;;;;;;;3.87;1.03;;;11.50;89.20;;;;;;5026981;28;20567;-45
2023/11/06 06:24:35;;;;;;;4.57;1.53;;;11.50;89.20;;;;;;5027129;28;20871;-46
2023/11/06 06:27:05;;;;;;;5.80;1.27;;;11.50;89.20;;;;;;5027776;28;20538;-46
2023/11/06 06:29:33;;;;;;;4.40;1.13;;;11.50;89.10;;;;;;5027168;28;20435;-46
2023/11/06 06:32:02;;;;;;;3.00;1.07;;;11.50;89.20;;;;;;5026125;28;20897;-46
2023/11/06 06:34:31;;;;;;;2.27;0.90;;;11.50;89.20;;;;;;5025361;28;21076;-46
2023/11/06 06:36:59;;;;;;;2.73;0.90;;;11.50;89.20;;;;;;5025759;28;20488;-46
2023/11/06 06:39:27;;;;;;;1.93;0.93;;;11.50;89.10;;;;;;5025453;28;20461;-46
2023/11/06 06:41:56;;;;;;;5.43;0.90;;;11.50;89.10;;;;;;5026618;28;20535;-46
2023/11/06 06:44:30;;;;;;;2.73;0.93;;;11.50;89.00;;;;;;5008289;28;20451;-46
2023/11/06 06:46:59;;;;;;;4.57;1.20;;;11.50;88.90;;;;;;5025166;28;20594;-46
2023/11/06 06:49:27;;;;;;;3.70;1.10;;;11.50;89.20;;;;;;5027418;28;20441;-45
2023/11/06 06:51:55;;;;;;;2.90;0.93;;;11.50;88.90;;;;;;5024669;28;20472;-46
2023/11/06 06:54:24;;;;;;;2.97;0.97;;;11.50;88.90;;;;;;5023043;28;20460;-46
2023/11/06 06:56:55;;;;;;;2.50;1.13;;;11.50;88.90;;;;;;5023140;28;20478;-46
2023/11/06 06:59:23;;;;;;;3.40;1.27;;;11.40;88.40;;;;;;5027543;28;20462;-46
2023/11/06 07:01:53;;;;;;;1.80;1.07;;;11.50;88.70;;;;;;5025253;28;20471;-46
2023/11/06 07:04:21;;;;;;;3.30;0.87;;;11.50;88.40;;;;;;5018196;28;20459;-46
2023/11/06 07:06:51;;;;;;;1.87;1.00;;;11.50;88.40;;;;;;5027109;28;20569;-46
2023/11/06 07:09:20;;;;;;;2.50;1.10;;;11.40;88.40;;;;;;5016298;28;20495;-47
2023/11/06 07:11:50;;;;;;;3.73;1.20;;;11.40;88.20;;;;;;5029342;28;21077;-45
2023/11/06 07:14:19;;;;;;;3.23;0.90;;;11.50;88.30;;;;;;5010193;28;20804;-46
2023/11/06 07:16:48;;;;;;;3.50;1.03;;;11.40;88.20;;;;;;5026701;28;21005;-46
2023/11/06 07:19:18;;;;;;;4.73;1.10;;;11.40;88.20;;;;;;5024980;28;20447;-46
2023/11/06 07:21:46;;;;;;;3.97;0.93;;;11.40;88.10;;;;;;5025984;28;20486;-46
2023/11/06 07:24:17;;;;;;;2.77;1.10;;;11.40;87.80;;;;;;5024808;28;20443;-46
2023/11/06 07:26:45;;;;;;;5.13;1.40;;;11.40;87.80;;;;;;5027059;28;20482;-46
2023/11/06 07:29:14;;;;;;;3.90;1.43;;;11.40;87.80;;;;;;5016598;28;20542;-46
2023/11/06 07:31:42;;;;;;;4.93;1.77;;;11.50;88.40;;;;;;5022800;28;20460;-46
2023/11/06 07:34:10;;;;;;;2.70;1.10;;;11.50;87.80;;;;;;5026525;28;20767;-46
2023/11/06 07:36:48;;;;;;;1.60;0.60;;;11.50;87.70;;;;;;5026409;28;20495;-46
2023/11/06 07:39:17;;;;;;;4.37;1.40;;;11.40;88.00;;;;;;5024361;28;20758;-46
2023/11/06 07:41:47;;;;;;;2.70;1.00;;;11.40;87.80;;;;;;5025695;28;20472;-47
2023/11/06 07:44:20;;;;;;;4.60;1.40;;;11.40;87.70;;;;;;5027318;28;20986;-46
2023/11/06 07:46:51;;;;;;;5.00;1.47;;;11.40;87.30;;;;;;5025759;28;20525;-46
2023/11/06 07:49:19;;;;;;;2.90;1.13;;;11.40;87.30;;;;;;5013399;28;20440;-45
2023/11/06 07:51:48;;;;;;;2.80;1.07;;;11.40;87.10;;;;;;5025801;28;20499;-47
2023/11/06 07:54:20;;;;;;;4.70;1.30;;;11.40;87.00;;;;;;5023813;28;20464;-46
2023/11/06 07:56:54;;;;;;;2.20;0.90;;;11.40;86.70;;;;;;5026277;28;20474;-46
2023/11/06 07:59:25;;;;;;;1.73;0.70;;;11.40;86.90;;;;;;5027363;28;20436;-46
2023/11/06 08:01:55;;;;;;;3.80;1.17;;;11.40;87.30;;;;;;5024655;28;20478;-46
2023/11/06 08:04:23;;;;;;;3.57;1.40;;;11.50;86.90;;;;;;5007608;28;20531;-47
2023/11/06 08:06:53;;;;;;;3.80;1.10;;;11.50;86.90;;;;;;5024553;28;20491;-45
2023/11/06 08:09:21;;;;;;;2.13;0.93;;;11.50;86.90;;;;;;5027616;28;20537;-46
2023/11/06 08:11:49;;;;;;;5.13;1.33;;;11.50;86.80;;;;;;5030059;28;20468;-46
2023/11/06 08:14:17;;;;;;;3.10;0.83;;;11.50;87.00;;;;;;5030167;28;21010;-46
2023/11/06 08:16:45;;;;;;;2.57;0.90;;;11.50;87.20;;;;;;5027940;28;20487;-46
2023/11/06 08:19:14;;;;;;;3.23;1.13;;;11.50;87.10;;;;;;5027433;28;20436;-46
2023/11/06 08:21:42;;;;;;;3.53;1.20;;;11.50;87.20;;;;;;5028688;28;20564;-45
2023/11/06 08:24:14;;;;;;;1.60;0.90;;;11.50;87.30;;;;;;5026455;28;20722;-46
2023/11/06 08:26:44;;;;;;;2.27;1.07;;;11.50;87.10;;;;;;5029120;28;20485;-46
2023/11/06 08:29:12;;;;;;;3.00;0.97;;;11.60;86.90;;;;;;5027097;28;20487;-46
2023/11/06 08:31:41;;;;;;;3.03;1.00;;;11.60;86.80;;;;;;5028475;28;20468;-46
2023/11/06 08:34:10;;;;;;;1.90;0.90;;;11.60;86.80;;;;;;5027421;28;20533;-46
2023/11/06 08:36:44;;;;;;;4.00;1.00;;;11.60;86.80;;;;;;5025953;28;20563;-46
2023/11/06 08:39:16;;;;;;;2.40;0.80;;;11.60;86.80;;;;;;5025123;28;20447;-46
2023/11/06 08:41:46;;;;;;;2.47;0.83;;;11.60;86.70;;;;;;5028520;28;21069;-46
2023/11/06 08:44:14;;;;;;;3.90;0.83;;;11.70;86.80;;;;;;5010687;28;20956;-46
2023/11/06 08:46:43;;;;;;;2.30;1.10;;;11.70;86.60;;;;;;5026996;28;20474;-46
2023/11/06 08:49:12;;;;;;;2.83;1.10;;;11.70;86.50;;;;;;5027285;28;20466;-46
2023/11/06 08:51:54;;;;;;;3.73;1.30;;;11.70;88.00;;;;;;5027203;28;20562;-47
2023/11/06 08:54:24;;;;;;;2.63;0.80;;;11.80;85.10;;;;;;5006109;28;20433;-46
2023/11/06 08:56:52;;;;;;;2.60;1.07;;;11.80;85.10;;;;;;5026473;28;20473;-46
2023/11/06 08:59:21;;;;;;;3.77;1.27;;;11.80;85.10;;;;;;5027963;28;20454;-46
2023/11/06 09:01:51;;;;;;;3.67;1.00;;;11.70;85.10;;;;;;5027302;28;20479;-46
2023/11/06 09:04:20;;;;;;;2.63;1.20;;;11.70;85.10;;;;;;5029408;28;20926;-46
2023/11/06 09:06:48;;;;;;;5.20;1.30;;;11.70;85.40;;;;;;5027474;28;20943;-47
2023/11/06 09:09:17;;;;;;;5.70;0.87;;;11.70;85.50;;;;;;5024634;28;20949;-46
2023/11/06 09:11:47;;;;;;;5.97;1.70;;;11.70;85.60;;;;;;5028920;28;20754;-46
2023/11/06 09:14:19;;;;;;;5.40;1.30;;;11.70;85.70;;;;;;5011178;28;20865;-46
2023/11/06 09:16:48;;;;;;;2.30;1.00;;;11.70;85.50;;;;;;5010762;28;20512;-46
2023/11/06 09:19:20;;;;;;;8.43;2.10;;;11.80;85.60;;;;;;5026483;28;20458;-46
2023/11/06 09:21:48;;;;;;;4.63;1.30;;;11.80;85.70;;;;;;5028965;28;20474;-46
2023/11/06 09:24:16;;;;;;;3.97;1.67;;;11.90;85.20;;;;;;5010567;28;20489;-45
2023/11/06 09:26:47;;;;;;;6.47;1.27;;;11.90;85.20;;;;;;5027856;28;20563;-46
2023/11/06 09:29:15;;;;;;;3.37;1.50;;;12.00;85.30;;;;;;5023377;28;20446;-46
2023/11/06 09:31:45;;;;;;;4.93;1.73;;;12.00;84.00;;;;;;5028019;28;20466;-47
2023/11/06 09:34:13;;;;;;;5.20;1.40;;;12.00;83.60;;;;;;5026261;28;20436;-46
2023/11/06 09:36:42;;;;;;;4.70;1.70;;;12.00;83.80;;;;;;5028586;28;20560;-46
2023/11/06 09:39:10;;;;;;;5.30;1.60;;;12.00;84.00;;;;;;5006730;28;20531;-46
2023/11/06 09:41:39;;;;;;;6.37;1.70;;;12.00;84.20;;;;;;5026064;28;20996;-47
2023/11/06 09:44:08;;;;;;;7.67;3.00;;;11.90;84.50;;;;;;5029071;28;20432;-46
2023/11/06 09:46:37;;;;;;;4.80;1.27;;;11.90;84.70;;;;;;5009168;28;20505;-46
2023/11/06 09:49:11;;;;;;;4.60;1.40;;;11.90;85.10;;;;;;5028692;28;20434;-47
2023/11/06 09:51:43;;;;;;;6.43;1.30;;;11.90;85.20;;;;;;5027968;28;20563;-46
2023/11/06 09:54:12;;;;;;;4.73;1.00;;;11.90;85.40;;;;;;5021074;28;20444;-47
2023/11/06 09:56:45;;;;;;;4.73;1.30;;;11.90;85.20;;;;;;5009892;28;20559;-46
2023/11/06 09:59:16;;;;;;;5.07;1.07;;;11.90;85.20;;;;;;5022898;28;20430;-46
2023/11/06 10:01:52;;;;;;;4.67;1.13;;;11.90;85.20;;;;;;5025325;28;20571;-46
2023/11/06 10:04:21;;;;;;;2.60;1.10;;;11.90;85.20;;;;;;5027915;28;20856;-46
2023/11/06 10:06:50;;;;;;;3.20;1.10;;;11.90;85.20;;;;;;5027796;28;20464;-47
2023/11/06 10:09:23;;;;;;;2.30;0.70;;;11.90;85.20;;;;;;5025516;28;20438;-46
2023/11/06 10:11:51;;;;;;;2.47;0.90;;;11.90;85.20;;;;;;5010184;28;21015;-47
2023/11/06 10:14:37;;;;;;;2.13;0.80;;;11.90;85.20;;;;;;5027915;28;20527;-47
2023/11/06 10:17:05;;;;;;;1.73;0.87;;;11.90;85.20;;;;;;5025170;28;20511;-46
2023/11/06 10:19:35;;;;;;;2.60;1.10;;;11.90;85.20;;;;;;5003904;28;20459;-46
2023/11/06 10:22:12;;;;;;;4.57;1.60;;;11.90;85.20;;;;;;5027801;28;20536;-46
2023/11/06 10:24:50;;;;;;;2.23;0.87;;;11.90;85.20;;;;;;5025421;28;20647;-46
2023/11/06 10:27:24;;;;;;;4.97;1.40;;;11.90;85.20;;;;;;5012210;28;20470;-46
2023/11/06 10:30:03;;;;;;;2.93;1.17;;;11.90;85.20;;;;;;5027620;28;20445;-47
2023/11/06 10:32:32;;;;;;;2.10;0.90;;;11.90;85.20;;;;;;5021860;28;20490;-46
2023/11/06 10:35:02;;;;;;;6.77;1.47;;;11.80;85.10;;;;;;5028526;28;20441;-46
2023/11/06 10:37:38;;;;;;;3.10;1.13;;;11.90;85.20;;;;;;5027296;28;20485;-45
2023/11/06 10:40:12;;;;;;;6.80;1.30;;;11.80;85.10;;;;;;5023461;28;21061;-47
2023/11/06 10:42:42;;;;;;;3.93;1.00;;;11.90;85.20;;;;;;5027661;28;20481;-46
2023/11/06 10:45:14;;;;;;;3.57;1.03;;;11.90;85.20;;;;;;5026761;28;20455;-46
2023/11/06 10:47:46;;;;;;;2.57;0.97;;;11.80;85.10;;;;;;5026807;28;20471;-46
2023/11/06 10:50:22;;;;;;;4.13;0.93;;;11.90;85.20;;;;;;4999449;28;20457;-45
2023/11/06 10:52:54;;;;;;;4.50;1.33;;;11.80;85.10;;;;;;5007370;28;20463;-47
2023/11/06 10:55:23;;;;;;;1.67;0.70;;;11.80;85.10;;;;;;5005793;28;20457;-46
2023/11/06 10:58:00;;;;;;;3.50;1.30;;;11.80;85.10;;;;;;5006304;28;20567;-46
2023/11/06 11:00:33;;;;;;;3.10;0.90;;;11.80;85.10;;;;;;5006626;28;20521;-46
2023/11/06 11:03:03;;;;;;;5.67;1.00;;;11.80;85.10;;;;;;5004534;28;20887;-47
2023/11/06 11:05:33;;;;;;;2.23;0.73;;;11.80;85.10;;;;;;5007816;28;20515;-46
2023/11/06 11:08:05;;;;;;;1.80;0.90;;;11.80;85.10;;;;;;5007837;28;20445;-46
2023/11/06 11:10:34;;;;;;;5.93;1.13;;;11.90;85.20;;;;;;5004146;28;20455;-46
2023/11/06 11:13:03;;;;;;;3.70;1.00;;;11.80;85.10;;;;;;5007349;28;20533;-46
2023/11/06 11:15:35;;;;;;;2.47;1.10;;;11.80;85.10;;;;;;5007514;28;20480;-46
2023/11/06 11:18:05;;;;;;;2.33;0.77;;;11.80;85.10;;;;;;5004655;28;20489;-46
2023/11/06 11:20:53;;;;;;;4.17;1.70;;;11.80;85.10;;;;;;5005303;28;20440;-45
2023/11/06 11:23:38;;;;;;;2.50;0.90;;;11.80;85.10;;;;;;5017459;28;20441;-45
2023/11/06 11:26:10;;;;;;;1.97;0.90;;;11.90;85.20;;;;;;5006786;28;20473;-45
2023/11/06 11:28:53;;;;;;;2.13;0.83;;;11.80;85.10;;;;;;5006000;28;20448;-46
2023/11/06 11:31:33;;;;;;;4.70;0.90;;;11.90;85.20;;;;;;5009415;28;20458;-46
2023/11/06 11:34:05;;;;;;;1.57;0.73;;;11.90;85.20;;;;;;5003449;28;20936;-46
2023/11/06 11:36:36;;;;;;;3.10;1.03;;;11.90;85.20;;;;;;5007311;28;20556;-46
2023/11/06 11:39:13;;;;;;;1.50;0.90;;;11.90;85.20;;;;;;5004545;28;20487;-46
2023/11/06 11:42:22;;;;;;;1.90;0.87;;;11.90;85.20;;;;;;5006609;28;20735;-46
2023/11/06 11:44:52;;;;;;;2.27;1.03;;;11.90;85.20;;;;;;5011706;28;20812;-46
2023/11/06 11:47:24;;;;;;;2.00;1.00;;;11.90;85.20;;;;;;5010181;28;20534;-46
2023/11/06 11:49:53;;;;;;;1.63;0.67;;;11.90;85.20;;;;;;5015339;28;20861;-46
2023/11/06 11:52:44;;;;;;;2.10;0.70;;;11.90;85.20;;;;;;5031269;28;20555;-46
2023/11/06 11:55:35;;;;;;;2.10;0.87;;;11.90;85.20;;;;;;5029256;28;20518;-46
2023/11/06 11:58:06;;;;;;;2.03;0.70;;;11.90;85.20;;;;;;5010499;28;20479;-46
2023/11/06 12:00:36;;;;;;;1.70;0.60;;;11.90;85.20;;;;;;5030120;28;20490;-47
2023/11/06 12:03:13;;;;;;;1.53;0.90;;;11.90;85.20;;;;;;5028203;28;20448;-47
2023/11/06 12:05:46;;;;;;;3.07;0.93;;;11.90;85.20;;;;;;5028641;28;20464;-46
2023/11/06 12:08:17;;;;;;;1.77;0.60;;;11.90;85.20;;;;;;5029300;28;20492;-46
2023/11/06 12:10:47;;;;;;;1.40;0.87;;;11.90;85.20;;;;;;5029652;28;20858;-46
2023/11/06 12:13:21;;;;;;;1.20;0.47;;;11.90;85.20;;;;;;5031167;28;20425;-46
2023/11/06 12:15:50;;;;;;;1.47;0.63;;;11.90;85.20;;;;;;5012250;28;20531;-46
2023/11/06 12:18:43;;;;;;;2.23;0.60;;;11.90;85.20;;;;;;5012842;28;20471;-46
2023/11/06 12:21:30;;;;;;;1.80;0.93;;;11.90;85.30;;;;;;5028976;28;20570;-46
2023/11/06 12:24:17;;;;;;;3.87;0.67;;;11.90;85.30;;;;;;5028102;28;20450;-46
2023/11/06 12:27:05;;;;;;;2.60;0.77;;;11.90;85.50;;;;;;5027610;28;20467;-46
2023/11/06 12:30:04;;;;;;;3.10;0.60;;;11.80;85.60;;;;;;5029360;28;20963;-45
2023/11/06 12:32:52;;;;;;;1.20;0.40;;;11.90;85.80;;;;;;5028125;28;20574;-46
2023/11/06 12:35:22;;;;;;;1.70;0.67;;;11.90;86.70;;;;;;5010535;28;20523;-44
2023/11/06 12:37:52;;;;;;;1.50;0.60;;;11.80;85.70;;;;;;5028057;28;20473;-47
2023/11/06 12:40:22;;;;;;;1.53;0.67;;;11.90;85.90;;;;;;5005874;28;20447;-45
2023/11/06 12:42:51;;;;;;;1.40;0.60;;;11.90;85.80;;;;;;5028330;28;21016;-46
2023/11/06 12:45:27;;;;;;;1.83;0.60;;;11.90;85.70;;;;;;5028835;28;20487;-46
2023/11/06 12:47:56;;;;;;;1.60;0.60;;;11.90;85.60;;;;;;5027971;28;20429;-46
2023/11/06 12:50:26;;;;;;;1.50;0.50;;;11.90;85.70;;;;;;5025983;28;20868;-44
2023/11/06 12:52:56;;;;;;;1.67;0.50;;;11.90;85.40;;;;;;5029988;28;20438;-44
2023/11/06 12:55:24;;;;;;;1.20;0.60;;;11.90;85.30;;;;;;5023892;28;20471;-45
2023/11/06 12:58:09;;;;;;;1.17;0.40;;;11.90;85.30;;;;;;5028962;28;20433;-47
2023/11/06 13:00:42;;;;;;;2.37;0.70;;;11.90;85.40;;;;;;5025303;28;20445;-46
2023/11/06 13:03:11;;;;;;;1.10;0.53;;;11.90;85.30;;;;;;5010745;28;20451;-45
2023/11/06 13:05:41;;;;;;;1.93;1.27;;;11.90;85.50;;;;;;5024340;28;20472;-46